• Join FlightAware (Why Join?)
  • Login
  • US Flag 
08:42PM EDT


 

Airport Tracker/Info


-or-


 

Live Flight TrackerFlight Track Log ✈ ASQ5941 ✈ 16-May-2013 ✈ KORD - KAVP

Flight Track Log - Related Links

Times and Time Zones

All times are in EDT time to prevent confusion due to time zone crossing. See the ASQ5941 flight status page for this flight to view local times or setup timezone preferences in your user account.

Time Position Orientation Groundspeed Altitude Reporting Facility
EDT Latitude Longitude Course Direction KTS MPH feet Rate Location/Type
03:02PM 42.0167 -87.8500 90° East 184 212 2,600  Level Chicago TRACON
03:03PM 42.0500 -87.7833 56° Northeast 230 265 4,400 1,680 Climbing Chicago TRACON
03:04PM 42.0333 -87.7000 105° East 270 311 5,800 1,800 Climbing Chicago TRACON
03:06PM 42.0403 -87.5222 87° East 278 320 9,600 1,740 Climbing Chicago Center
03:07PM 42.0578 -87.4136 78° East 295 339 11,000 1,380 Climbing Chicago Center
03:08PM 42.1000 -87.0001 90° East  Level FlightAware Approximate
03:08PM 42.0803 -87.2636 79° East 338 389 12,500  Level Chicago Center
03:09PM 42.1014 -87.1314 78° East 358 412 14,000 1,440 Climbing Chicago Center
03:10PM 42.1144 -86.9958 83° East 368 423 15,500 1,320 Climbing Chicago Center
03:11PM 42.1192 -86.8544 87° East 377 434 16,800 1,380 Climbing Chicago Center
03:12PM 42.1239 -86.7128 87° East 382 440 18,400 1,740 Climbing Chicago Center
03:13PM 42.1297 -86.5489 87° East 380 437 20,400 1,620 Climbing Chicago Center
03:14PM 42.1347 -86.4058 87° East 381 438 21,800 1,380 Climbing Chicago Center
03:15PM 42.1397 -86.2628 87° East 383 441 23,300 1,380 Climbing Chicago Center
03:16PM 42.1433 -86.1197 88° East 382 440 24,700 780 Climbing Chicago Center
03:17PM 42.1422 -85.9500 90° East 399 459 25,000 120 Climbing Chicago Center
03:18PM 42.1400 -85.7872 91° East 426 490 25,000  Level Chicago Center
03:20PM 42.1383 -85.6131 91° East 456 525 25,000  Level Chicago Center
03:21PM 42.1369 -85.4356 91° East 472 543 25,000  Level Chicago Center
03:21PM 42.1383 -85.2994 89° East 475 547 25,000  Level Cleveland Center
03:22PM 42.1372 -85.1200 90° East 480 552 25,000  Level Cleveland Center
03:23PM 42.1339 -84.9322 91° East 485 558 25,000  Level Cleveland Center
03:24PM 42.1303 -84.7497 91° East 485 558 25,000  Level Cleveland Center
03:25PM 42.1244 -84.5644 92° East 485 558 25,000  Level Cleveland Center
03:26PM 42.1269 -84.3631 89° East 490 564 25,000  Level Cleveland Center
03:27PM 42.1489 -84.2019 80° East 490 564 25,000  Level Cleveland Center
03:28PM 42.1711 -84.0211 81° East 490 564 25,000  Level Cleveland Center
03:29PM 42.1833 -83.8142 85° East 501 577 25,000  Level Cleveland Center
03:30PM 42.1781 -83.6317 92° East 496 571 25,000  Level Cleveland Center
03:31PM 42.1744 -83.4439 91° East 496 571 25,000  Level Cleveland Center
03:32PM 42.1664 -83.2531 93° East 496 571 25,000  Level Cleveland Center
03:33PM 42.1622 -83.0678 92° East 503 579 25,000  Level Cleveland Center
03:34PM 42.1558 -82.8800 93° East 498 573 25,000  Level Cleveland Center
03:35PM 42.1492 -82.6892 93° East 498 573 25,000  Level Cleveland Center
03:36PM 42.1419 -82.5042 93° East 498 573 25,000  Level Cleveland Center
03:37PM 42.1344 -82.3136 93° East 498 573 25,000  Level Cleveland Center
03:38PM 42.1247 -82.1258 94° East 498 573 25,000  Level Cleveland Center
03:39PM 42.1186 -81.9436 93° East 498 573 25,000  Level Cleveland Center
03:40PM 42.1083 -81.7558 94° East 503 579 25,000  Level Cleveland Center
03:41PM 42.0997 -81.5625 93° East 503 579 25,000  Level Cleveland Center
03:42PM 42.0906 -81.3778 94° East 497 572 25,000  Level Cleveland Center
03:43PM 42.0833 -81.1903 93° East 497 572 25,000  Level Cleveland Center
03:44PM 42.0739 -81.0056 94° East 496 571 25,000  Level Cleveland Center
03:45PM 42.0639 -80.8378 95° East 501 577 25,000  Level Cleveland Center
03:46PM 42.0536 -80.6503 94° East 501 577 25,000  Level Cleveland Center
03:47PM 42.0433 -80.4631 94° East 502 578 25,000  Level Cleveland Center
03:48PM 42.0347 -80.2756 93° East 502 578 25,000  Level Cleveland Center
03:49PM 42.0214 -80.0883 95° East 497 572 25,000  Level Cleveland Center
03:50PM 42.0100 -79.9042 95° East 499 574 25,000  Level Cleveland Center
03:51PM 41.9983 -79.7114 95° East 499 574 25,000  Level Cleveland Center
03:52PM 41.9864 -79.5244 95° East 499 574 25,000  Level Cleveland Center
03:53PM 41.9719 -79.3375 96° East 499 574 25,000  Level Cleveland Center
03:54PM 41.9614 -79.1450 94° East 504 580 25,000  Level Cleveland Center
03:55PM 41.9486 -78.9583 95° East 504 580 25,000 -300 Level Cleveland Center
03:56PM 41.9331 -78.7661 96° East 504 580 24,400 -720 Descending Cleveland Center
03:57PM 41.9194 -78.5739 95° East 504 580 23,600 -720 Descending Cleveland Center
03:58PM 41.9056 -78.3875 96° East 504 580 23,000 -300 Descending Cleveland Center
03:59PM 41.8917 -78.2008 96° East 504 580 23,000  Level Cleveland Center
04:01PM 41.8708 -77.9183 96° East 508 585 23,000  Level New York Center
04:02PM 41.8228 -77.7433 110° East 502 578 23,000  Level New York Center
04:03PM 41.7575 -77.5781 118° Southeast 495 570 23,000  Level New York Center
04:04PM 41.6964 -77.4078 116° Southeast 502 578 23,000 -180 Level New York Center
04:05PM 41.6728 -77.2278 100° East 497 572 22,700 -1,140 Descending New York Center
04:06PM 41.6553 -77.0483 97° East 486 559 20,800 -1,920 Descending New York Center
04:07PM 41.6356 -76.8689 98° East 486 559 18,900 -2,100 Descending New York Center
04:08PM 41.6142 -76.6753 98° East 486 559 16,700 -2,220 Descending New York Center
04:09PM 41.5964 -76.5267 99° East 467 537 14,500 -2,880 Descending New York Center
04:10PM 41.5789 -76.3728 99° East 436 502 11,100 -2,520 Descending New York Center
04:11PM 41.5628 -76.2272 98° East 375 432 9,500 -1,440 Descending New York Center
04:12PM 41.5447 -76.1203 103° East 317 365 8,200 -1,440 Descending New York Center
04:13PM 41.5200 -76.0186 108° East 294 338 6,600 -1,620 Descending New York Center
04:14PM 41.4933 -75.9167 109° East 288 331 5,000 -1,260 Descending New York Center
04:15PM 41.4681 -75.8236 110° East 283 326 4,100 -780 Descending New York Center
04:16PM 41.4364 -75.7381 116° Southeast 265 305 3,500 -900 Descending New York Center
04:17PM 41.3967 -75.6908 138° Southeast 199 229 2,400 2,700 Descending New York Center
04:18PM 41.3611 -75.6911 180° South 154 177 9,000 3,240 Climbing New York Center
04:19PM 41.3206 -75.6661 155° Southeast 154 177 9,000  Level New York Center
04:20PM 41.2797 -75.6436 158° South 154 177 9,000  Level New York Center
04:21PM 41.2392 -75.6186 155° Southeast 154 177 9,000  Level New York Center
04:22PM 41.2147 -75.6058 159° South 154 177 9,000  Level New York Center
04:24PM 41.3333 -75.7167 327° Northwest  Level FlightAware Approximate
04:31PM 41.3385 -75.7234 327° Northwest  Level Estimated
04:32PM 41.3333 -75.7167 327° Northwest  Level FlightAware Approximate
04:33PM 41.3385 -75.7234 327° Northwest  Level Estimated
04:34PM 41.3333 -75.7167 327° Northwest  Level FlightAware Approximate
04:35PM 41.3385 -75.7234 327° Northwest  Level Estimated
04:36PM 41.3333 -75.7167 327° Northwest  Level FlightAware Approximate
04:37PM 41.3385 -75.7234 327° Northwest  Level Estimated
04:38PM 41.3333 -75.7167 327° Northwest  Level FlightAware Approximate
04:39PM 41.3385 -75.7234 327° Northwest  Level Estimated